Time;durP1;ratioP1;P1;durP2;ratioP2;P2;SDS_P1;SDS_P2;PMS_P1;PMS_P2;Temp;Humidity;BMP_temperature;BMP_pressure;BME280_temperature;BME280_humidity;BME280_pressure;Samples;Min_cycle;Max_cycle;Signal;HPM_P1;HPM_P2
2023/12/02 00:04:29;;;;;;;93.47;47.00;;;-3.50;99.90;;;;;;4800364;29;20360;-84
2023/12/02 00:45:06;;;;;;;103.63;48.03;;;-4.00;99.90;;;;;;4658600;30;20291;-84
2023/12/02 01:10:26;;;;;;;121.70;53.80;;;-4.00;99.90;;;;;;4833308;29;20687;-85
2023/12/02 01:40:12;;;;;;;115.07;54.17;;;-3.70;99.90;;;;;;4863355;28;20288;-84
2023/12/02 02:00:46;;;;;;;109.03;50.60;;;-3.60;99.90;;;;;;4767514;29;20489;-82
2023/12/02 02:25:54;;;;;;;131.47;56.00;;;-3.50;99.90;;;;;;4656115;30;20644;-84
2023/12/02 02:51:46;;;;;;;115.37;49.90;;;-3.40;99.90;;;;;;4674253;30;20209;-84
2023/12/02 03:22:22;;;;;;;100.87;38.03;;;-3.30;99.90;;;;;;4724425;29;20303;-83
2023/12/02 03:52:25;;;;;;;94.67;36.07;;;-3.40;99.90;;;;;;4731222;29;20524;-85
2023/12/02 04:48:22;;;;;;;110.87;41.17;;;-3.50;99.90;;;;;;4736748;29;20585;-82
2023/12/02 05:08:33;;;;;;;121.57;42.47;;;-3.50;99.90;;;;;;4831444;29;20375;-82
2023/12/02 05:29:06;;;;;;;98.73;40.77;;;-3.40;99.90;;;;;;4802867;29;20201;-83
2023/12/02 05:49:35;;;;;;;99.97;37.80;;;-3.50;99.90;;;;;;4877134;28;20341;-82
2023/12/02 07:20:39;;;;;;;83.10;28.70;;;-3.20;99.90;;;;;;4826292;29;20207;-84
2023/12/02 07:25:54;;;;;;;77.27;29.53;;;-3.20;99.90;;;;;;5839480;23;20220;-84
2023/12/02 07:56:07;;;;;;;73.70;27.20;;;-2.90;99.90;;;;;;4840363;29;20274;-85
2023/12/02 08:21:31;;;;;;;76.73;30.20;;;-2.70;99.90;;;;;;4754678;29;20205;-85
2023/12/02 08:41:53;;;;;;;73.90;28.23;;;-2.60;99.90;;;;;;4649191;30;20301;-86
2023/12/02 09:22:06;;;;;;;72.10;28.73;;;-2.10;99.90;;;;;;4737552;29;20544;-86
2023/12/02 09:48:04;;;;;;;62.83;24.20;;;-1.90;99.90;;;;;;4836211;29;20208;-85
2023/12/02 10:08:11;;;;;;;59.67;24.73;;;-1.70;99.90;;;;;;4680746;30;20784;-84
2023/12/02 10:43:16;;;;;;;60.97;25.40;;;-1.50;99.90;;;;;;4836660;29;20238;-85
2023/12/02 11:04:06;;;;;;;64.53;25.23;;;-1.20;99.90;;;;;;4755000;29;20671;-85
2023/12/02 11:29:00;;;;;;;62.27;29.33;;;-1.20;99.90;;;;;;4731141;29;20218;-85
2023/12/02 11:59:20;;;;;;;72.77;32.40;;;-1.20;99.90;;;;;;4775384;29;20497;-86
2023/12/02 12:19:41;;;;;;;68.10;29.73;;;-1.30;99.90;;;;;;4748306;29;20543;-82
2023/12/02 12:40:36;;;;;;;51.30;21.93;;;-1.40;99.90;;;;;;4754173;29;20333;-83
2023/12/02 12:55:37;;;;;;;50.50;21.47;;;-1.40;99.90;;;;;;4929130;28;20227;-85
2023/12/02 13:25:38;;;;;;;58.43;26.53;;;-1.40;99.90;;;;;;4783822;29;20250;-86
2023/12/02 13:46:17;;;;;;;76.10;34.73;;;-1.40;99.90;;;;;;4825936;29;20353;-85
2023/12/02 14:16:33;;;;;;;72.73;33.20;;;-1.50;99.90;;;;;;4688010;30;20810;-85
2023/12/02 14:42:02;;;;;;;73.80;31.80;;;-1.40;99.90;;;;;;4719110;30;20219;-86
2023/12/02 15:07:46;;;;;;;63.03;26.80;;;-1.50;99.90;;;;;;4765305;29;20239;-83
2023/12/02 15:32:30;;;;;;;75.87;31.60;;;-1.40;99.90;;;;;;4828097;29;20507;-82
2023/12/02 15:57:47;;;;;;;72.43;29.30;;;-1.40;99.90;;;;;;4667690;30;20729;-84
2023/12/02 16:13:32;;;;;;;70.40;29.23;;;-1.50;99.90;;;;;;4614208;30;20883;-86
2023/12/02 16:38:38;;;;;;;61.47;24.90;;;-1.60;99.90;;;;;;4664057;30;20229;-85
2023/12/02 16:59:03;;;;;;;77.87;33.50;;;-1.30;99.90;;;;;;4762406;29;20313;-84
2023/12/02 17:24:32;;;;;;;63.60;27.47;;;-1.40;99.90;;;;;;4748698;29;20329;-86
2023/12/02 17:55:03;;;;;;;86.37;33.03;;;-1.50;99.90;;;;;;4880356;29;20251;-86
2023/12/02 18:25:19;;;;;;;55.10;24.27;;;-1.70;99.90;;;;;;4845341;29;20240;-88
2023/12/02 18:55:55;;;;;;;70.83;28.50;;;-1.60;99.90;;;;;;4880724;28;20218;-83
2023/12/02 19:16:17;;;;;;;64.17;26.70;;;-1.50;99.90;;;;;;4906741;28;20217;-84
2023/12/02 19:36:34;;;;;;;67.53;27.23;;;-1.40;99.90;;;;;;4705082;30;20254;-85
2023/12/02 20:51:57;;;;;;;52.83;24.07;;;-1.20;99.90;;;;;;4872746;29;20610;-84
2023/12/02 21:02:12;;;;;;;61.03;25.40;;;-1.40;99.90;;;;;;4851204;29;20211;-83
2023/12/02 21:27:46;;;;;;;82.57;30.50;;;-1.40;99.90;;;;;;4708088;30;20221;-85
2023/12/02 22:28:55;;;;;;;63.00;26.00;;;-1.40;99.90;;;;;;4602787;30;20497;-86
2023/12/02 22:33:08;;;;;;;68.00;27.50;;;-1.30;99.90;;;;;;4587994;30;20232;-84
2023/12/02 22:59:09;;;;;;;68.47;28.23;;;-1.30;99.90;;;;;;4485154;31;20323;-86
2023/12/02 23:24:36;;;;;;;63.63;26.13;;;-1.30;99.90;;;;;;4621476;30;20332;-83
2023/12/02 23:54:40;;;;;;;56.33;25.30;;;-1.20;99.90;;;;;;4637286;30;20234;-82
